Big Stone 5 — WSE3119 — position and weather

sailwx.info

Track history (hours):
 
Tides and Currents Weather Stations Pressure Air Temp Water Temp Dewpoint Dewpoint Depression Visibility Wind Speed Wind Dir Waves Ship Positions

Big Stone 5

Owner: DELAWARE BAY LAUNCH SERVICE INC, MILFORD, DE. More information available from US FCC via Universal Licensing System and Coast Guard Vessel Documentation Center.

Last reported at 2018-May-24 21:30 UTC. Time now 2018-May-24 21:42 UTC.
Position N 38°56' W 075°16'.

Length 16 m; draft 1 m.

Type: Pilot. MMSI: 367090580.

Date/timePositionNaut miles runAvg speedWind from/ knotsBaromVisibWave heightAir tempDewpointWater temp
2018-May-24 21:30N 38°56' W 075°16'3 5.0
2018-May-24 21:00N 38°56' W 075°12'5 0.4
2018-May-24 08:43N 38°56' W 075°19'1 0.0
2018-May-22 23:45N 38°57' W 075°18'1 1.8
2018-May-22 23:26N 38°56' W 075°19'6 1.2
2018-May-22 18:20N 38°59' W 075°12'6 9.3
2018-May-22 17:42N 38°56' W 075°19'716.9
2018-May-22 17:18N 38°57' W 075°11'1 3.6
2018-May-22 17:00N 38°57' W 075°12'6 7.0
2018-May-22 16:13N 38°56' W 075°19'0 0.2
2018-May-22 15:59N 38°56' W 075°19'612.0
2018-May-22 15:31N 38°58' W 075°12'6 9.7
2018-May-22 14:55N 38°56' W 075°19'0 0.0
2018-May-22 14:30N 38°56' W 075°19'3 5.9
2018-May-22 14:00N 38°58' W 075°16'713.4
2018-May-22 13:31N 38°55' W 075°08'2 3.8
2018-May-22 13:00N 38°53' W 075°10'814.1
2018-May-22 12:28N 38°56' W 075°19'714.5
2018-May-22 12:00N 38°57' W 075°10'713.1
2018-May-22 11:30N 38°57' W 075°19'0 0.8
2018-May-22 11:00N 38°56' W 075°19'0 0.0
2018-May-22 10:30N 38°56' W 075°19'612.0
2018-May-22 10:00N 38°54' W 075°12'2 3.5
2018-May-22 09:30N 38°56' W 075°11'713.3
2018-May-22 09:01N 38°56' W 075°19'0 0.0
2018-May-22 08:29N 38°56' W 075°19'714.9
2018-May-22 08:01N 39°02' W 075°14'2 4.1
2018-May-22 07:30N 39°04' W 075°13'3 6.1
2018-May-22 07:00N 39°01' W 075°15'6 5.8
2018-May-22 06:00N 38°56' W 075°19'713.8
2018-May-22 05:30N 38°57' W 075°10'713.0
2018-May-22 05:00N 38°57' W 075°19'0 0.7
2018-May-22 04:29N 38°56' W 075°19'0 0.0
2018-May-22 04:00N 38°56' W 075°19'0 0.0
2018-May-22 03:30N 38°56' W 075°19'0 0.0
2018-May-22 03:00N 38°56' W 075°19'0 0.2
2018-May-22 02:30N 38°56' W 075°19'1020.1
2018-May-22 02:00N 38°55' W 075°06'1 2.2
2018-May-22 01:30N 38°56' W 075°07'1 2.8
2018-May-22 01:00N 38°55' W 075°06'611.4
2018-May-22 00:31N 38°57' W 075°13'5 9.6
2018-May-22 00:00N 38°56' W 075°19'0 0.0
2018-May-21 23:29N 38°56' W 075°19'714.5
2018-May-21 23:00N 38°55' W 075°10'713.8
2018-May-21 22:30N 38°56' W 075°19'4 9.0
2018-May-21 22:00N 38°58' W 075°14'1 0.5
2018-May-21 18:50N 38°60' W 075°13'6 0.8
2018-May-21 11:36N 38°56' W 075°19'613.9
2018-May-21 11:12N 38°60' W 075°13'0 2.3
2018-May-21 11:00N 38°59' W 075°13'2 0.9
2018-May-21 08:59N 38°58' W 075°12'6 1.2
2018-May-21 04:00N 38°56' W 075°19'710.5
2018-May-21 03:22N 38°57' W 075°11'617.8
2018-May-21 03:01N 38°57' W 075°19'  
2018-May-18 05:01N 38°55' W 075°09'0 2.1
2018-May-18 05:00N 38°55' W 075°09'8 0.3
2018-May-17 06:53N 38°56' W 075°19'6 0.8
2018-May-16 23:38N 38°59' W 075°12'0 0.2
2018-May-16 23:30N 38°59' W 075°12'5 0.8
2018-May-16 17:05N 38°54' W 075°09'3 8.3
2018-May-16 16:46N 38°57' W 075°10'618.8
2018-May-16 16:27N 38°56' W 075°18'6 8.8
2018-May-16 15:48N 38°57' W 075°11'0 1.2
2018-May-16 15:30N 38°57' W 075°11'6 0.3
2018-May-15 17:00N 38°56' W 075°19'8 1.3
2018-May-15 10:41N 38°56' W 075°09'423.4
2018-May-15 10:30N 38°57' W 075°14'4 5.9
2018-May-15 09:49N 38°56' W 075°19'0 0.0
2018-May-15 08:10N 38°56' W 075°19'0 0.0
2018-May-15 07:53N 38°56' W 075°19'0 0.0
2018-May-15 07:12N 38°56' W 075°19'0 0.0
2018-May-15 06:50N 38°56' W 075°19'0 0.0
2018-May-15 06:29N 38°56' W 075°19'0 0.0
2018-May-15 03:44N 38°56' W 075°19'0 0.0
2018-May-15 03:30N 38°56' W 075°19'0 0.0
2018-May-15 02:58N 38°56' W 075°19'0 0.0
2018-May-15 01:27N 38°56' W 075°19'  
Track history (hours):
 
Tides and Currents Weather Stations Pressure Air Temp Water Temp Dewpoint Dewpoint Depression Visibility Wind Speed Wind Dir Waves Ship Positions

Big Stone 5

Owner: DELAWARE BAY LAUNCH SERVICE INC, MILFORD, DE. More information available from US FCC via Universal Licensing System and Coast Guard Vessel Documentation Center.

Last reported at 2018-May-24 21:30 UTC. Time now 2018-May-24 21:42 UTC.
Position N 38°56' W 075°16'.

Length 16 m; draft 1 m.

Type: Pilot. MMSI: 367090580.

Date/timePositionNaut miles runAvg speedWind from/ knotsBaromVisibWave heightAir tempDewpointWater temp
2018-May-24 21:30N 38°56' W 075°16'3 5.0
2018-May-24 21:00N 38°56' W 075°12'5 0.4
2018-May-24 08:43N 38°56' W 075°19'1 0.0
2018-May-22 23:45N 38°57' W 075°18'1 1.8
2018-May-22 23:26N 38°56' W 075°19'6 1.2
2018-May-22 18:20N 38°59' W 075°12'6 9.3
2018-May-22 17:42N 38°56' W 075°19'716.9
2018-May-22 17:18N 38°57' W 075°11'1 3.6
2018-May-22 17:00N 38°57' W 075°12'6 7.0
2018-May-22 16:13N 38°56' W 075°19'0 0.2
2018-May-22 15:59N 38°56' W 075°19'612.0
2018-May-22 15:31N 38°58' W 075°12'6 9.7
2018-May-22 14:55N 38°56' W 075°19'0 0.0
2018-May-22 14:30N 38°56' W 075°19'3 5.9
2018-May-22 14:00N 38°58' W 075°16'713.4
2018-May-22 13:31N 38°55' W 075°08'2 3.8
2018-May-22 13:00N 38°53' W 075°10'814.1
2018-May-22 12:28N 38°56' W 075°19'714.5
2018-May-22 12:00N 38°57' W 075°10'713.1
2018-May-22 11:30N 38°57' W 075°19'0 0.8
2018-May-22 11:00N 38°56' W 075°19'0 0.0
2018-May-22 10:30N 38°56' W 075°19'612.0
2018-May-22 10:00N 38°54' W 075°12'2 3.5
2018-May-22 09:30N 38°56' W 075°11'713.3
2018-May-22 09:01N 38°56' W 075°19'0 0.0
2018-May-22 08:29N 38°56' W 075°19'714.9
2018-May-22 08:01N 39°02' W 075°14'2 4.1
2018-May-22 07:30N 39°04' W 075°13'3 6.1
2018-May-22 07:00N 39°01' W 075°15'6 5.8
2018-May-22 06:00N 38°56' W 075°19'713.8
2018-May-22 05:30N 38°57' W 075°10'713.0
2018-May-22 05:00N 38°57' W 075°19'0 0.7
2018-May-22 04:29N 38°56' W 075°19'0 0.0
2018-May-22 04:00N 38°56' W 075°19'0 0.0
2018-May-22 03:30N 38°56' W 075°19'0 0.0
2018-May-22 03:00N 38°56' W 075°19'0 0.2
2018-May-22 02:30N 38°56' W 075°19'1020.1
2018-May-22 02:00N 38°55' W 075°06'1 2.2
2018-May-22 01:30N 38°56' W 075°07'1 2.8
2018-May-22 01:00N 38°55' W 075°06'611.4
2018-May-22 00:31N 38°57' W 075°13'5 9.6
2018-May-22 00:00N 38°56' W 075°19'0 0.0
2018-May-21 23:29N 38°56' W 075°19'714.5
2018-May-21 23:00N 38°55' W 075°10'713.8
2018-May-21 22:30N 38°56' W 075°19'4 9.0
2018-May-21 22:00N 38°58' W 075°14'1 0.5
2018-May-21 18:50N 38°60' W 075°13'6 0.8
2018-May-21 11:36N 38°56' W 075°19'613.9
2018-May-21 11:12N 38°60' W 075°13'0 2.3
2018-May-21 11:00N 38°59' W 075°13'2 0.9
2018-May-21 08:59N 38°58' W 075°12'6 1.2
2018-May-21 04:00N 38°56' W 075°19'710.5
2018-May-21 03:22N 38°57' W 075°11'617.8
2018-May-21 03:01N 38°57' W 075°19'  
2018-May-18 05:01N 38°55' W 075°09'0 2.1
2018-May-18 05:00N 38°55' W 075°09'8 0.3
2018-May-17 06:53N 38°56' W 075°19'6 0.8
2018-May-16 23:38N 38°59' W 075°12'0 0.2
2018-May-16 23:30N 38°59' W 075°12'5 0.8
2018-May-16 17:05N 38°54' W 075°09'3 8.3
2018-May-16 16:46N 38°57' W 075°10'618.8
2018-May-16 16:27N 38°56' W 075°18'6 8.8
2018-May-16 15:48N 38°57' W 075°11'0 1.2
2018-May-16 15:30N 38°57' W 075°11'6 0.3
2018-May-15 17:00N 38°56' W 075°19'8 1.3
2018-May-15 10:41N 38°56' W 075°09'423.4
2018-May-15 10:30N 38°57' W 075°14'4 5.9
2018-May-15 09:49N 38°56' W 075°19'0 0.0
2018-May-15 08:10N 38°56' W 075°19'0 0.0
2018-May-15 07:53N 38°56' W 075°19'0 0.0
2018-May-15 07:12N 38°56' W 075°19'0 0.0
2018-May-15 06:50N 38°56' W 075°19'0 0.0
2018-May-15 06:29N 38°56' W 075°19'0 0.0
2018-May-15 03:44N 38°56' W 075°19'0 0.0
2018-May-15 03:30N 38°56' W 075°19'0 0.0
2018-May-15 02:58N 38°56' W 075°19'0 0.0
2018-May-15 01:27N 38°56' W 075°19'  

Dump ship's entire track history